createdAt,value
2023-03-21T00:01:44.356Z,34.58
2023-03-21T00:05:44.621Z,34.59
2023-03-21T00:09:44.792Z,34.58
2023-03-21T00:13:44.765Z,34.50
2023-03-21T00:17:44.768Z,34.47
2023-03-21T00:21:59.645Z,34.50
2023-03-21T00:25:45.666Z,34.50
2023-03-21T00:29:44.611Z,34.45
2023-03-21T00:33:44.803Z,34.43
2023-03-21T00:37:44.759Z,34.41
2023-03-21T00:41:44.753Z,34.33
2023-03-21T00:45:44.720Z,34.32
2023-03-21T00:49:44.699Z,34.36
2023-03-21T00:53:44.615Z,34.35
2023-03-21T00:57:47.472Z,34.30
2023-03-21T01:01:45.611Z,34.29
2023-03-21T01:05:44.517Z,34.25
2023-03-21T01:09:44.724Z,34.20
2023-03-21T01:13:53.788Z,34.20
2023-03-21T01:17:47.793Z,34.19
2023-03-21T01:21:44.612Z,34.15
2023-03-21T01:25:44.565Z,34.09
2023-03-21T01:29:44.549Z,34.15
2023-03-21T01:33:44.518Z,34.12
2023-03-21T01:37:44.486Z,34.11
2023-03-21T01:41:44.947Z,34.07
2023-03-21T01:45:44.429Z,34.09
2023-03-21T01:49:44.354Z,34.03
2023-03-21T01:53:44.510Z,34.01
2023-03-21T01:57:58.245Z,34.01
2023-03-21T02:01:45.421Z,33.96
2023-03-21T02:05:44.418Z,33.98
2023-03-21T02:09:44.382Z,33.98
2023-03-21T02:13:44.349Z,33.99
2023-03-21T02:17:44.307Z,33.95
2023-03-21T02:21:44.260Z,33.92
2023-03-21T02:25:44.226Z,33.89
2023-03-21T02:29:44.195Z,33.89
2023-03-21T02:33:44.145Z,33.86
2023-03-21T02:37:46.818Z,33.89
2023-03-21T02:41:45.088Z,33.85
2023-03-21T02:45:44.064Z,33.88
2023-03-21T02:49:44.262Z,33.82
2023-03-21T02:53:44.228Z,33.77
2023-03-21T02:57:44.347Z,33.78
2023-03-21T03:01:44.187Z,33.82
2023-03-21T03:05:44.149Z,33.80
2023-03-21T03:09:44.074Z,33.76
2023-03-21T03:13:44.053Z,33.74
2023-03-21T03:17:44.015Z,33.73
2023-03-21T03:21:43.955Z,33.67
2023-03-21T03:25:43.933Z,33.67
2023-03-21T03:29:43.923Z,33.65
2023-03-21T03:33:44.159Z,33.65
2023-03-21T03:37:44.149Z,33.56
2023-03-21T03:42:15.252Z,33.56
2023-03-21T03:45:45.029Z,33.53
2023-03-21T03:49:44.022Z,33.50
2023-03-21T03:53:44.161Z,33.47
2023-03-21T03:57:44.376Z,33.43
2023-03-21T04:01:44.654Z,33.41
2023-03-21T04:05:44.786Z,33.42
2023-03-21T04:09:45.288Z,33.42
2023-03-21T04:13:44.740Z,33.37
2023-03-21T04:17:44.697Z,33.32
2023-03-21T04:21:44.673Z,33.34
2023-03-21T04:25:55.958Z,33.31
2023-03-21T04:29:45.589Z,33.29
2023-03-21T04:33:44.566Z,33.27
2023-03-21T04:37:44.784Z,33.29
2023-03-21T04:41:44.980Z,33.22
2023-03-21T04:45:45.235Z,33.23
2023-03-21T04:49:45.426Z,33.19
2023-03-21T04:53:45.651Z,33.19
2023-03-21T04:57:45.618Z,33.15
2023-03-21T05:01:45.581Z,33.13
2023-03-21T05:05:45.539Z,33.12
2023-03-21T05:09:45.526Z,33.06
2023-03-21T05:13:45.462Z,33.06
2023-03-21T05:17:46.335Z,33.07
2023-03-21T05:21:45.409Z,33.05
2023-03-21T05:25:45.364Z,32.97
2023-03-21T05:29:45.342Z,33.02
2023-03-21T05:33:45.290Z,32.97
2023-03-21T05:37:45.248Z,32.97
2023-03-21T05:41:45.224Z,32.97
2023-03-21T05:45:45.211Z,32.90
2023-03-21T05:49:45.165Z,32.86
2023-03-21T05:53:45.106Z,32.87
2023-03-21T05:57:45.137Z,32.93
2023-03-21T06:01:45.872Z,32.93
2023-03-21T06:05:45.375Z,32.87
2023-03-21T06:09:45.556Z,32.99
2023-03-21T06:13:45.769Z,32.97
2023-03-21T06:17:45.925Z,32.96
2023-03-21T06:21:45.979Z,33.05
2023-03-21T06:25:46.118Z,33.12
2023-03-21T06:29:46.272Z,33.12
2023-03-21T06:33:46.364Z,33.12
2023-03-21T06:37:46.872Z,33.16
2023-03-21T06:41:46.669Z,33.27
2023-03-21T06:45:47.385Z,33.59
2023-03-21T06:49:46.909Z,33.95
2023-03-21T06:53:46.890Z,34.19
2023-03-21T06:57:46.813Z,35.06
2023-03-21T07:01:46.912Z,35.60
2023-03-21T07:05:46.722Z,36.15
2023-03-21T07:09:46.893Z,36.61
2023-03-21T07:13:46.663Z,37.01
2023-03-21T07:17:46.924Z,37.27
2023-03-21T07:21:46.571Z,37.75
2023-03-21T07:25:46.579Z,38.09
2023-03-21T07:29:46.522Z,38.22
2023-03-21T07:33:46.526Z,38.50
2023-03-21T07:37:46.465Z,38.88
2023-03-21T07:41:46.410Z,39.13
2023-03-21T07:45:46.432Z,39.70
2023-03-21T07:49:46.380Z,38.08
2023-03-21T07:53:46.405Z,38.75
2023-03-21T07:57:46.438Z,39.15
2023-03-21T08:01:46.643Z,39.76
2023-03-21T08:05:46.599Z,39.92
2023-03-21T08:09:46.602Z,40.34
2023-03-21T08:13:46.550Z,40.65
2023-03-21T08:17:46.528Z,40.83
2023-03-21T08:21:46.460Z,41.00
2023-03-21T08:25:46.434Z,41.26
2023-03-21T08:29:46.427Z,41.43
2023-03-21T08:33:46.378Z,41.76
2023-03-21T08:37:46.358Z,42.03
2023-03-21T08:41:46.315Z,42.36
2023-03-21T08:45:46.453Z,42.81
2023-03-21T08:49:46.428Z,41.95
2023-03-21T08:53:46.435Z,41.64
2023-03-21T08:57:46.484Z,41.21
2023-03-21T09:01:46.155Z,41.08
2023-03-21T09:05:46.117Z,40.95
2023-03-21T09:09:50.892Z,40.88
2023-03-21T09:13:47.031Z,40.82
2023-03-21T09:17:46.283Z,40.67
2023-03-21T09:21:46.233Z,40.60
2023-03-21T09:25:46.240Z,40.48
2023-03-21T09:29:46.176Z,40.49
2023-03-21T09:33:46.113Z,40.30
2023-03-21T09:37:46.436Z,35.90
2023-03-21T09:41:46.475Z,35.60
2023-03-21T09:45:46.482Z,34.03
2023-03-21T09:49:46.001Z,32.65
2023-03-21T09:53:45.955Z,32.43
2023-03-21T09:57:45.945Z,31.67
2023-03-21T10:01:45.902Z,31.03
2023-03-21T10:05:45.897Z,30.66
2023-03-21T10:09:45.791Z,29.74
2023-03-21T10:13:45.864Z,29.66
2023-03-21T10:17:45.932Z,29.11
2023-03-21T10:22:03.462Z,28.83
2023-03-21T10:25:47.072Z,28.67
2023-03-21T10:29:45.947Z,28.68
2023-03-21T10:33:45.999Z,28.48
2023-03-21T10:37:46.005Z,28.42
2023-03-21T10:41:46.060Z,28.45
2023-03-21T10:45:46.544Z,28.43
2023-03-21T10:50:10.765Z,28.90
2023-03-21T10:53:47.364Z,29.91
2023-03-21T10:57:46.298Z,30.43
2023-03-21T11:01:46.428Z,30.83
2023-03-21T11:05:46.424Z,31.25
2023-03-21T11:09:46.455Z,31.48
2023-03-21T11:13:46.483Z,31.81
2023-03-21T11:17:46.482Z,32.10
2023-03-21T11:21:46.588Z,32.47
2023-03-21T11:25:46.656Z,32.78
2023-03-21T11:29:46.846Z,33.06
2023-03-21T11:33:46.781Z,33.46
2023-03-21T11:37:47.013Z,33.47
2023-03-21T11:41:47.011Z,33.79
2023-03-21T11:45:46.706Z,34.20
2023-03-21T11:49:48.188Z,34.70
2023-03-21T11:53:46.622Z,34.98
2023-03-21T11:57:46.585Z,35.44
2023-03-21T12:01:46.642Z,35.67
2023-03-21T12:05:46.539Z,36.11
2023-03-21T12:09:46.475Z,36.58
2023-03-21T12:13:46.535Z,36.65
2023-03-21T12:17:46.490Z,36.71
2023-03-21T12:21:46.380Z,36.86
2023-03-21T12:25:46.341Z,36.81
2023-03-21T12:29:46.537Z,37.21
2023-03-21T12:33:46.530Z,36.96
2023-03-21T12:37:46.555Z,36.61
2023-03-21T12:41:46.632Z,36.32
2023-03-21T12:45:47.560Z,36.10
2023-03-21T12:49:46.522Z,35.79
2023-03-21T12:53:46.106Z,35.71
2023-03-21T12:57:56.423Z,35.44
2023-03-21T13:01:47.047Z,35.25
2023-03-21T13:05:45.965Z,35.10
2023-03-21T13:09:46.079Z,34.89
2023-03-21T13:13:46.169Z,34.79
2023-03-21T13:17:46.038Z,34.55
2023-03-21T13:21:45.993Z,34.10
2023-03-21T13:25:46.054Z,35.72
2023-03-21T13:29:46.018Z,35.88
2023-03-21T13:33:45.904Z,35.79
2023-03-21T13:37:45.840Z,36.07
2023-03-21T13:41:45.819Z,36.09
2023-03-21T13:45:46.235Z,36.10
2023-03-21T13:49:45.748Z,35.77
2023-03-21T13:53:46.579Z,35.86
2023-03-21T13:57:45.686Z,35.38
2023-03-21T14:01:45.727Z,35.39
2023-03-21T14:05:45.660Z,34.83
2023-03-21T14:09:45.568Z,34.28
2023-03-21T14:13:51.164Z,34.21
2023-03-21T14:17:46.606Z,34.16
2023-03-21T14:21:45.569Z,34.22
2023-03-21T14:25:47.787Z,34.17
2023-03-21T14:29:45.418Z,34.01
2023-03-21T14:33:45.532Z,33.79
2023-03-21T14:37:45.512Z,33.86
2023-03-21T14:41:45.564Z,33.23
2023-03-21T14:45:45.606Z,32.81
2023-03-21T14:49:45.796Z,32.85
2023-03-21T14:53:45.784Z,32.72
2023-03-21T14:57:45.883Z,32.14
2023-03-21T15:01:46.037Z,31.85
2023-03-21T15:05:46.101Z,31.58
2023-03-21T15:09:46.121Z,31.62
2023-03-21T15:13:46.599Z,31.76
2023-03-21T15:17:46.338Z,31.46
2023-03-21T15:21:46.514Z,31.26
2023-03-21T15:25:46.545Z,30.91
2023-03-21T15:29:46.670Z,30.89
2023-03-21T15:33:46.741Z,30.80
2023-03-21T15:37:46.929Z,30.81
2023-03-21T15:41:46.937Z,30.78
2023-03-21T15:45:47.005Z,30.58
2023-03-21T15:49:47.166Z,30.50
2023-03-21T15:53:47.382Z,30.27
2023-03-21T15:57:47.421Z,30.09
2023-03-21T16:01:47.667Z,30.04
2023-03-21T16:05:47.682Z,29.85
2023-03-21T16:09:47.943Z,29.83
2023-03-21T16:13:47.987Z,29.76
2023-03-21T16:17:48.120Z,29.79
2023-03-21T16:21:48.258Z,29.66
2023-03-21T16:25:48.383Z,29.66
2023-03-21T16:29:48.518Z,29.67
2023-03-21T16:33:48.689Z,29.66
2023-03-21T16:37:48.864Z,29.64
2023-03-21T16:41:49.025Z,29.68
2023-03-21T16:45:49.216Z,29.66
2023-03-21T16:49:49.174Z,29.74
2023-03-21T16:53:49.170Z,29.81
2023-03-21T16:57:49.133Z,29.85
2023-03-21T17:01:49.240Z,29.95
2023-03-21T17:05:49.048Z,29.92
2023-03-21T17:09:49.002Z,29.95
2023-03-21T17:13:49.029Z,29.99
2023-03-21T17:17:48.946Z,29.99
2023-03-21T17:21:48.907Z,29.97
2023-03-21T17:25:48.947Z,29.91
2023-03-21T17:29:49.214Z,29.84
2023-03-21T17:33:50.133Z,29.78
2023-03-21T17:37:49.575Z,29.71
2023-03-21T17:41:49.662Z,29.59
2023-03-21T17:45:49.821Z,29.60
2023-03-21T17:49:49.952Z,29.52
2023-03-21T17:53:50.070Z,29.63
2023-03-21T17:57:50.137Z,29.66
2023-03-21T18:01:50.100Z,29.67
2023-03-21T18:05:50.149Z,29.71
2023-03-21T18:09:50.134Z,29.72
2023-03-21T18:13:50.131Z,29.74
2023-03-21T18:17:50.086Z,29.88
2023-03-21T18:21:50.071Z,29.85
2023-03-21T18:25:50.103Z,29.91
2023-03-21T18:33:51.043Z,29.98
2023-03-21T18:37:50.207Z,30.02
2023-03-21T18:41:50.058Z,30.02
2023-03-21T18:45:49.894Z,29.96
2023-03-21T18:53:50.847Z,29.86
2023-03-21T18:57:49.849Z,29.73
2023-03-21T19:01:49.855Z,29.74
2023-03-21T19:05:49.727Z,29.71
2023-03-21T19:10:15.399Z,29.62
2023-03-21T19:13:50.665Z,29.68
2023-03-21T19:21:50.584Z,29.56
2023-03-21T19:25:49.624Z,29.57
2023-03-21T19:30:06.642Z,29.59
2023-03-21T19:33:50.494Z,29.55
2023-03-21T19:37:49.468Z,29.55
2023-03-21T19:41:50.162Z,29.57
2023-03-21T19:45:49.428Z,29.48
2023-03-21T19:50:40.121Z,29.44
2023-03-21T19:53:50.339Z,29.44
2023-03-21T19:57:49.324Z,29.48
2023-03-21T20:01:49.321Z,29.43
2023-03-21T20:05:49.217Z,29.50
2023-03-21T20:09:53.336Z,29.56
2023-03-21T20:13:50.253Z,29.52
2023-03-21T20:17:49.278Z,29.57
2023-03-21T20:21:56.872Z,29.59
2023-03-21T20:25:50.149Z,29.64
2023-03-21T20:30:08.849Z,29.66
2023-03-21T20:33:50.074Z,29.61
2023-03-21T20:37:49.042Z,29.59
2023-03-21T20:41:48.994Z,29.62
2023-03-21T20:45:49.581Z,29.63
2023-03-21T20:49:49.497Z,29.59
2023-03-21T20:53:49.490Z,29.58
2023-03-21T20:57:50.993Z,29.55
2023-03-21T21:01:49.895Z,29.55
2023-03-21T21:05:50.006Z,29.54
2023-03-21T21:09:50.211Z,29.53
2023-03-21T21:13:50.349Z,29.52
2023-03-21T21:18:07.671Z,29.49
2023-03-21T21:21:51.494Z,29.52
2023-03-21T21:25:50.443Z,29.46
2023-03-21T21:29:50.493Z,29.52
2023-03-21T21:33:50.677Z,29.50
2023-03-21T21:37:50.900Z,29.51
2023-03-21T21:41:51.126Z,29.47
2023-03-21T21:45:51.072Z,29.50
2023-03-21T21:49:51.069Z,29.45
2023-03-21T21:53:51.025Z,29.47
2023-03-21T21:57:50.992Z,29.43
2023-03-21T22:01:50.929Z,29.48
2023-03-21T22:05:50.912Z,29.52
2023-03-21T22:09:50.866Z,29.52
2023-03-21T22:13:50.851Z,29.52
2023-03-21T22:17:50.825Z,29.62
2023-03-21T22:21:50.764Z,29.65
2023-03-21T22:25:50.726Z,29.67
2023-03-21T22:29:50.718Z,29.74
2023-03-21T22:33:50.662Z,29.79
2023-03-21T22:37:50.634Z,29.79
2023-03-21T22:41:50.603Z,29.78
2023-03-21T22:45:50.627Z,29.83
2023-03-21T22:49:50.549Z,29.81
2023-03-21T22:53:50.496Z,29.82
2023-03-21T22:57:50.528Z,29.75
2023-03-21T23:01:50.399Z,29.82
2023-03-21T23:05:50.490Z,29.78
2023-03-21T23:09:50.356Z,29.68
2023-03-21T23:14:05.072Z,29.69
2023-03-21T23:17:51.296Z,29.69
2023-03-21T23:21:50.286Z,29.64
2023-03-21T23:25:50.216Z,29.69
2023-03-21T23:29:50.147Z,29.70
2023-03-21T23:33:50.169Z,29.70
2023-03-21T23:37:50.153Z,29.74
2023-03-21T23:41:50.130Z,29.74
2023-03-21T23:45:50.100Z,29.80
2023-03-21T23:49:50.138Z,29.82
2023-03-21T23:53:50.076Z,29.75
2023-03-21T23:57:50.062Z,29.78
